createdAt,value
2023-04-11T00:00:02.031Z,916.00
2023-04-11T00:01:02.068Z,899.00
2023-04-11T00:02:02.196Z,866.00
2023-04-11T00:03:02.431Z,882.00
2023-04-11T00:04:02.372Z,879.00
2023-04-11T00:05:02.296Z,850.00
2023-04-11T00:06:02.251Z,849.00
2023-04-11T00:07:02.304Z,918.00
2023-04-11T00:08:02.344Z,873.00
2023-04-11T00:09:02.353Z,920.00
2023-04-11T00:10:02.458Z,881.00
2023-04-11T00:11:02.420Z,873.00
2023-04-11T00:12:02.455Z,902.00
2023-04-11T00:13:02.498Z,877.00
2023-04-11T00:14:02.546Z,887.00
2023-04-11T00:15:02.586Z,920.00
2023-04-11T00:16:02.705Z,894.00
2023-04-11T00:17:02.654Z,882.00
2023-04-11T00:18:02.736Z,882.00
2023-04-11T00:19:02.728Z,931.00
2023-04-11T00:20:02.766Z,904.00
2023-04-11T00:21:02.811Z,877.00
2023-04-11T00:22:02.909Z,872.00
2023-04-11T00:23:02.875Z,879.00
2023-04-11T00:24:02.920Z,900.00
2023-04-11T00:25:02.949Z,879.00
2023-04-11T00:26:02.981Z,879.00
2023-04-11T00:27:03.010Z,900.00
2023-04-11T00:28:03.037Z,881.00
2023-04-11T00:29:03.074Z,913.00
2023-04-11T00:30:03.208Z,904.00
2023-04-11T00:31:03.151Z,886.00
2023-04-11T00:32:03.242Z,866.00
2023-04-11T00:33:03.220Z,884.00
2023-04-11T00:34:03.225Z,902.00
2023-04-11T00:35:03.267Z,864.00
2023-04-11T00:36:03.326Z,878.00
2023-04-11T00:37:03.381Z,890.00
2023-04-11T00:38:03.347Z,879.00
2023-04-11T00:39:03.385Z,877.00
2023-04-11T00:40:03.417Z,864.00
2023-04-11T00:41:03.433Z,884.00
2023-04-11T00:42:03.495Z,913.00
2023-04-11T00:43:03.556Z,896.00
2023-04-11T00:44:03.714Z,898.00
2023-04-11T00:45:03.706Z,871.00
2023-04-11T00:46:03.834Z,899.00
2023-04-11T00:47:03.844Z,900.00
2023-04-11T00:48:03.905Z,872.00
2023-04-11T00:49:03.924Z,884.00
2023-04-11T00:50:03.952Z,886.00
2023-04-11T00:51:03.938Z,894.00
2023-04-11T00:52:03.985Z,907.00
2023-04-11T00:53:04.001Z,896.00
2023-04-11T00:54:04.029Z,873.00
2023-04-11T00:55:04.068Z,898.00
2023-04-11T00:56:04.077Z,882.00
2023-04-11T00:57:04.180Z,881.00
2023-04-11T00:58:04.134Z,886.00
2023-04-11T00:59:04.168Z,844.00
2023-04-11T01:00:04.212Z,855.00
2023-04-11T01:01:04.243Z,892.00
2023-04-11T01:02:04.373Z,856.00
2023-04-11T01:03:04.355Z,896.00
2023-04-11T01:04:04.379Z,877.00
2023-04-11T01:05:04.326Z,869.00
2023-04-11T01:06:04.353Z,882.00
2023-04-11T01:07:04.414Z,895.00
2023-04-11T01:08:04.419Z,916.00
2023-04-11T01:09:04.442Z,863.00
2023-04-11T01:10:04.480Z,852.00
2023-04-11T01:11:04.477Z,902.00
2023-04-11T01:12:04.500Z,863.00
2023-04-11T01:13:04.531Z,863.00
2023-04-11T01:14:04.560Z,893.00
2023-04-11T01:15:04.577Z,862.00
2023-04-11T01:16:04.600Z,876.00
2023-04-11T01:17:04.710Z,867.00
2023-04-11T01:18:04.676Z,862.00
2023-04-11T01:19:04.655Z,865.00
2023-04-11T01:20:04.688Z,844.00
2023-04-11T01:21:04.700Z,888.00
2023-04-11T01:22:04.748Z,889.00
2023-04-11T01:23:04.750Z,869.00
2023-04-11T01:24:04.787Z,864.00
2023-04-11T01:25:04.859Z,889.00
2023-04-11T01:26:04.832Z,871.00
2023-04-11T01:27:04.861Z,894.00
2023-04-11T01:28:04.872Z,869.00
2023-04-11T01:29:04.903Z,883.00
2023-04-11T01:30:04.958Z,852.00
2023-04-11T01:31:04.944Z,870.00
2023-04-11T01:32:04.964Z,855.00
2023-04-11T01:33:05.076Z,865.00
2023-04-11T01:34:05.015Z,852.00
2023-04-11T01:35:05.038Z,854.00
2023-04-11T01:36:05.105Z,892.00
2023-04-11T01:37:05.070Z,900.00
2023-04-11T01:38:05.092Z,869.00
2023-04-11T01:39:05.111Z,878.00
2023-04-11T01:40:05.137Z,878.00
2023-04-11T01:41:05.147Z,874.00
2023-04-11T01:42:05.191Z,848.00
2023-04-11T01:43:05.193Z,867.00
2023-04-11T01:44:05.221Z,854.00
2023-04-11T01:45:05.234Z,856.00
2023-04-11T01:46:05.253Z,855.00
2023-04-11T01:47:05.274Z,899.00
2023-04-11T01:48:05.348Z,858.00
2023-04-11T01:49:05.404Z,856.00
2023-04-11T01:50:05.319Z,868.00
2023-04-11T01:51:05.344Z,865.00
2023-04-11T01:52:05.356Z,868.00
2023-04-11T01:53:05.383Z,891.00
2023-04-11T01:54:05.399Z,857.00
2023-04-11T01:55:05.418Z,875.00
2023-04-11T01:56:05.434Z,863.00
2023-04-11T01:57:05.450Z,862.00
2023-04-11T01:58:05.463Z,871.00
2023-04-11T01:59:05.478Z,883.00
2023-04-11T02:00:05.499Z,860.00
2023-04-11T02:01:05.566Z,862.00
2023-04-11T02:02:05.621Z,863.00
2023-04-11T02:03:05.797Z,868.00
2023-04-11T02:04:05.735Z,856.00
2023-04-11T02:05:05.567Z,871.00
2023-04-11T02:06:05.563Z,871.00
2023-04-11T02:07:05.584Z,871.00
2023-04-11T02:08:05.624Z,868.00
2023-04-11T02:09:05.645Z,861.00
2023-04-11T02:10:05.645Z,872.00
2023-04-11T02:11:05.664Z,869.00
2023-04-11T02:12:05.682Z,882.00
2023-04-11T02:13:05.712Z,851.00
2023-04-11T02:14:05.738Z,870.00
2023-04-11T02:15:05.765Z,864.00
2023-04-11T02:16:05.844Z,892.00
2023-04-11T02:17:05.819Z,872.00
2023-04-11T02:18:05.904Z,869.00
2023-04-11T02:19:05.885Z,880.00
2023-04-11T02:20:05.903Z,859.00
2023-04-11T02:21:05.931Z,875.00
2023-04-11T02:22:05.980Z,862.00
2023-04-11T02:23:06.027Z,887.00
2023-04-11T02:24:06.051Z,871.00
2023-04-11T02:25:06.095Z,872.00
2023-04-11T02:26:06.108Z,871.00
2023-04-11T02:27:06.136Z,859.00
2023-04-11T02:28:08.102Z,864.00
2023-04-11T02:29:06.145Z,886.00
2023-04-11T02:30:06.209Z,873.00
2023-04-11T02:31:06.239Z,871.00
2023-04-11T02:32:06.347Z,862.00
2023-04-11T02:33:06.272Z,860.00
2023-04-11T02:34:06.230Z,881.00
2023-04-11T02:35:06.276Z,838.00
2023-04-11T02:36:06.337Z,849.00
2023-04-11T02:37:06.328Z,869.00
2023-04-11T02:38:06.331Z,854.00
2023-04-11T02:39:06.381Z,872.00
2023-04-11T02:40:06.407Z,889.00
2023-04-11T02:41:06.423Z,872.00
2023-04-11T02:42:06.417Z,877.00
2023-04-11T02:43:06.445Z,884.00
2023-04-11T02:44:06.480Z,860.00
2023-04-11T02:45:06.495Z,872.00
2023-04-11T02:46:12.675Z,871.00
2023-04-11T02:47:07.555Z,872.00
2023-04-11T02:48:06.610Z,873.00
2023-04-11T02:49:06.554Z,873.00
2023-04-11T02:50:06.550Z,878.00
2023-04-11T02:51:06.576Z,861.00
2023-04-11T02:52:06.594Z,876.00
2023-04-11T02:53:06.604Z,865.00
2023-04-11T02:54:06.621Z,888.00
2023-04-11T02:55:06.644Z,876.00
2023-04-11T02:56:06.659Z,872.00
2023-04-11T02:57:06.678Z,868.00
2023-04-11T02:58:06.676Z,868.00
2023-04-11T02:59:06.736Z,867.00
2023-04-11T03:00:06.720Z,877.00
2023-04-11T03:01:06.733Z,889.00
2023-04-11T03:02:06.859Z,880.00
2023-04-11T03:03:06.982Z,879.00
2023-04-11T03:04:06.962Z,880.00
2023-04-11T03:05:07.001Z,883.00
2023-04-11T03:06:07.096Z,874.00
2023-04-11T03:07:07.170Z,863.00
2023-04-11T03:08:07.240Z,874.00
2023-04-11T03:09:07.311Z,866.00
2023-04-11T03:10:07.372Z,874.00
2023-04-11T03:11:07.408Z,875.00
2023-04-11T03:12:07.432Z,858.00
2023-04-11T03:13:07.453Z,873.00
2023-04-11T03:14:07.484Z,868.00
2023-04-11T03:15:07.496Z,873.00
2023-04-11T03:16:07.589Z,863.00
2023-04-11T03:17:07.549Z,885.00
2023-04-11T03:18:07.585Z,857.00
2023-04-11T03:19:07.598Z,873.00
2023-04-11T03:20:07.619Z,860.00
2023-04-11T03:21:07.625Z,876.00
2023-04-11T03:22:07.649Z,863.00
2023-04-11T03:23:07.693Z,861.00
2023-04-11T03:24:07.720Z,856.00
2023-04-11T03:25:07.775Z,855.00
2023-04-11T03:26:07.782Z,865.00
2023-04-11T03:27:07.820Z,867.00
2023-04-11T03:28:07.835Z,877.00
2023-04-11T03:29:07.851Z,878.00
2023-04-11T03:30:07.870Z,870.00
2023-04-11T03:31:07.969Z,872.00
2023-04-11T03:32:07.927Z,857.00
2023-04-11T03:33:07.958Z,874.00
2023-04-11T03:34:07.984Z,869.00
2023-04-11T03:35:08.031Z,880.00
2023-04-11T03:36:08.107Z,873.00
2023-04-11T03:37:08.111Z,869.00
2023-04-11T03:38:08.140Z,882.00
2023-04-11T03:39:08.198Z,876.00
2023-04-11T03:40:08.200Z,877.00
2023-04-11T03:41:08.212Z,875.00
2023-04-11T03:42:08.245Z,874.00
2023-04-11T03:43:08.288Z,872.00
2023-04-11T03:44:08.341Z,865.00
2023-04-11T03:45:08.376Z,873.00
2023-04-11T03:46:08.456Z,888.00
2023-04-11T03:47:08.478Z,882.00
2023-04-11T03:48:08.628Z,867.00
2023-04-11T03:49:08.619Z,886.00
2023-04-11T03:50:08.677Z,869.00
2023-04-11T03:51:08.720Z,880.00
2023-04-11T03:52:08.775Z,892.00
2023-04-11T03:53:08.864Z,886.00
2023-04-11T03:54:08.906Z,885.00
2023-04-11T03:55:08.959Z,871.00
2023-04-11T03:56:08.991Z,884.00
2023-04-11T03:57:09.029Z,875.00
2023-04-11T03:58:09.073Z,872.00
2023-04-11T03:59:09.088Z,875.00
2023-04-11T04:00:09.173Z,863.00
2023-04-11T04:01:09.238Z,894.00
2023-04-11T04:02:09.932Z,883.00
2023-04-11T04:03:09.502Z,877.00
2023-04-11T04:04:09.605Z,876.00
2023-04-11T04:05:09.468Z,867.00
2023-04-11T04:06:09.462Z,873.00
2023-04-11T04:07:09.474Z,880.00
2023-04-11T04:08:09.541Z,874.00
2023-04-11T04:09:09.575Z,881.00
2023-04-11T04:10:09.652Z,876.00
2023-04-11T04:11:09.688Z,874.00
2023-04-11T04:12:09.723Z,880.00
2023-04-11T04:13:09.772Z,868.00
2023-04-11T04:14:09.806Z,873.00
2023-04-11T04:15:09.835Z,885.00
2023-04-11T04:16:09.883Z,874.00
2023-04-11T04:17:09.880Z,870.00
2023-04-11T04:18:09.945Z,874.00
2023-04-11T04:19:09.981Z,886.00
2023-04-11T04:20:10.047Z,886.00
2023-04-11T04:21:10.103Z,883.00
2023-04-11T04:22:10.170Z,878.00
2023-04-11T04:23:10.239Z,878.00
2023-04-11T04:24:10.288Z,876.00
2023-04-11T04:25:10.351Z,890.00
2023-04-11T04:26:10.440Z,869.00
2023-04-11T04:27:10.522Z,879.00
2023-04-11T04:28:10.619Z,892.00
2023-04-11T04:29:10.674Z,869.00
2023-04-11T04:30:10.739Z,869.00
2023-04-11T04:31:10.800Z,881.00
2023-04-11T04:32:11.111Z,873.00
2023-04-11T04:33:10.986Z,875.00
2023-04-11T04:34:11.002Z,882.00
2023-04-11T04:35:10.999Z,886.00
2023-04-11T04:36:11.155Z,882.00
2023-04-11T04:37:11.097Z,874.00
2023-04-11T04:38:11.172Z,880.00
2023-04-11T04:39:11.257Z,893.00
2023-04-11T04:40:11.325Z,885.00
2023-04-11T04:41:11.369Z,881.00
2023-04-11T04:42:11.424Z,877.00
2023-04-11T04:43:11.563Z,872.00
2023-04-11T04:44:11.578Z,883.00
2023-04-11T04:45:11.658Z,865.00
2023-04-11T04:46:11.788Z,883.00
2023-04-11T04:47:11.831Z,883.00
2023-04-11T04:48:11.907Z,870.00
2023-04-11T04:49:12.006Z,882.00
2023-04-11T04:50:12.088Z,880.00
2023-04-11T04:51:12.174Z,880.00
2023-04-11T04:52:12.262Z,892.00
2023-04-11T04:53:12.357Z,883.00
2023-04-11T04:54:12.450Z,893.00
2023-04-11T04:55:12.536Z,879.00
2023-04-11T04:56:12.619Z,875.00
2023-04-11T04:57:12.721Z,879.00
2023-04-11T04:58:12.795Z,875.00
2023-04-11T04:59:12.861Z,880.00
2023-04-11T05:00:12.946Z,892.00
2023-04-11T05:01:13.070Z,885.00
2023-04-11T05:02:13.227Z,880.00
2023-04-11T05:03:13.345Z,887.00
2023-04-11T05:04:13.569Z,881.00
2023-04-11T05:05:13.352Z,879.00
2023-04-11T05:06:13.424Z,877.00
2023-04-11T05:07:13.494Z,877.00
2023-04-11T05:08:13.551Z,888.00
2023-04-11T05:09:13.615Z,877.00
2023-04-11T05:10:13.702Z,881.00
2023-04-11T05:11:13.815Z,890.00
2023-04-11T05:12:13.911Z,880.00
2023-04-11T05:13:13.934Z,879.00
2023-04-11T05:14:14.013Z,893.00
2023-04-11T05:15:14.092Z,883.00
2023-04-11T05:16:14.199Z,892.00
2023-04-11T05:17:14.229Z,883.00
2023-04-11T05:18:14.316Z,879.00
2023-04-11T05:19:14.397Z,890.00
2023-04-11T05:20:14.471Z,877.00
2023-04-11T05:21:14.540Z,895.00
2023-04-11T05:22:14.613Z,885.00
2023-04-11T05:23:14.701Z,890.00
2023-04-11T05:24:14.772Z,933.00
2023-04-11T05:25:14.840Z,953.00
2023-04-11T05:26:14.927Z,999.00
2023-04-11T05:27:15.008Z,1080.00
2023-04-11T05:28:15.088Z,1123.00
2023-04-11T05:29:15.143Z,1147.00
2023-04-11T05:30:15.239Z,1159.00
2023-04-11T05:31:15.348Z,1250.00
2023-04-11T05:32:15.277Z,1305.00
2023-04-11T05:33:15.327Z,1391.00
2023-04-11T05:34:15.359Z,1448.00
2023-04-11T05:35:15.540Z,1541.00
2023-04-11T05:36:15.487Z,1580.00
2023-04-11T05:37:16.707Z,1633.00
2023-04-11T05:38:15.422Z,1690.00
2023-04-11T05:39:18.294Z,2042.00
2023-04-11T05:40:16.291Z,2147.00
2023-04-11T05:41:15.424Z,2145.00
2023-04-11T05:42:15.430Z,2053.00
2023-04-11T05:43:15.423Z,2099.00
2023-04-11T05:44:15.404Z,2124.00
2023-04-11T05:45:15.402Z,2127.00
2023-04-11T05:46:15.424Z,2143.00
2023-04-11T05:47:15.419Z,2191.00
2023-04-11T05:48:16.164Z,2240.00
2023-04-11T05:49:15.363Z,2279.00
2023-04-11T05:50:15.352Z,2308.00
2023-04-11T05:51:15.360Z,2350.00
2023-04-11T05:52:15.337Z,2391.00
2023-04-11T05:53:15.332Z,2416.00
2023-04-11T05:54:15.335Z,2461.00
2023-04-11T05:55:15.323Z,2494.00
2023-04-11T05:56:15.308Z,2537.00
2023-04-11T05:57:15.296Z,2579.00
2023-04-11T05:58:15.284Z,2579.00
2023-04-11T05:59:15.283Z,2612.00
2023-04-11T06:00:15.294Z,2630.00
2023-04-11T06:01:15.257Z,2699.00
2023-04-11T06:02:15.359Z,2775.00
2023-04-11T06:03:15.331Z,2869.00
2023-04-11T06:04:15.312Z,2872.00
2023-04-11T06:05:15.278Z,2872.00
2023-04-11T06:06:15.217Z,2901.00
2023-04-11T06:07:15.206Z,2913.00
2023-04-11T06:08:15.192Z,2923.00
2023-04-11T06:09:15.207Z,2936.00
2023-04-11T06:10:15.188Z,2947.00
2023-04-11T06:11:15.174Z,2965.00
2023-04-11T06:12:15.168Z,2996.00
2023-04-11T06:13:15.166Z,3032.00
2023-04-11T06:14:15.231Z,3067.00
2023-04-11T06:15:15.266Z,3095.00
2023-04-11T06:16:15.327Z,3128.00
2023-04-11T06:17:15.344Z,3155.00
2023-04-11T06:18:15.400Z,3200.00
2023-04-11T06:19:15.440Z,3228.00
2023-04-11T06:20:15.510Z,3200.00
2023-04-11T06:21:15.515Z,3159.00
2023-04-11T06:22:15.599Z,3207.00
2023-04-11T06:23:15.670Z,3202.00
2023-04-11T06:24:15.652Z,3198.00
2023-04-11T06:25:16.316Z,3182.00
2023-04-11T06:26:15.738Z,3193.00
2023-04-11T06:27:15.799Z,3198.00
2023-04-11T06:28:15.854Z,3197.00
2023-04-11T06:29:15.897Z,3191.00
2023-04-11T06:30:16.888Z,3191.00
2023-04-11T06:31:15.930Z,3193.00
2023-04-11T06:32:15.868Z,3184.00
2023-04-11T06:33:15.885Z,3196.00
2023-04-11T06:34:15.860Z,3180.00
2023-04-11T06:35:15.855Z,3178.00
2023-04-11T06:36:15.918Z,3168.00
2023-04-11T06:37:15.850Z,3165.00
2023-04-11T06:38:15.850Z,3160.00
2023-04-11T06:39:15.849Z,3142.00
2023-04-11T06:40:15.840Z,3140.00
2023-04-11T06:41:15.835Z,3123.00
2023-04-11T06:42:15.825Z,3126.00
2023-04-11T06:43:15.820Z,3106.00
2023-04-11T06:44:16.960Z,3107.00
2023-04-11T06:45:15.802Z,3101.00
2023-04-11T06:46:15.819Z,3083.00
2023-04-11T06:47:15.799Z,3078.00
2023-04-11T06:48:15.794Z,3087.00
2023-04-11T06:49:15.786Z,3082.00
2023-04-11T06:50:15.773Z,3072.00
2023-04-11T06:51:15.780Z,3065.00
2023-04-11T06:52:15.762Z,3063.00
2023-04-11T06:53:15.757Z,3069.00
2023-04-11T06:54:15.755Z,3043.00
2023-04-11T06:55:15.801Z,3045.00
2023-04-11T06:56:15.733Z,3032.00
2023-04-11T06:57:15.724Z,3033.00
2023-04-11T06:58:15.707Z,3020.00
2023-04-11T06:59:15.730Z,3021.00
2023-04-11T07:00:15.707Z,3011.00
2023-04-11T07:01:15.752Z,2994.00
2023-04-11T07:02:15.766Z,3013.00
2023-04-11T07:03:15.770Z,2984.00
2023-04-11T07:04:15.753Z,2985.00
2023-04-11T07:05:15.706Z,2979.00
2023-04-11T07:06:15.698Z,2971.00
2023-04-11T07:07:15.695Z,2967.00
2023-04-11T07:08:15.694Z,2974.00
2023-04-11T07:09:15.679Z,2937.00
2023-04-11T07:10:15.714Z,2962.00
2023-04-11T07:11:15.744Z,2939.00
2023-04-11T07:12:16.322Z,2952.00
2023-04-11T07:13:15.806Z,2925.00
2023-04-11T07:14:15.819Z,2932.00
2023-04-11T07:15:15.851Z,2937.00
2023-04-11T07:16:16.062Z,2918.00
2023-04-11T07:17:15.901Z,2900.00
2023-04-11T07:18:15.958Z,2896.00
2023-04-11T07:19:15.974Z,2882.00
2023-04-11T07:20:16.002Z,2887.00
2023-04-11T07:21:16.031Z,2877.00
2023-04-11T07:22:16.066Z,2883.00
2023-04-11T07:23:16.116Z,2893.00
2023-04-11T07:24:16.147Z,2843.00
2023-04-11T07:25:16.176Z,2563.00
2023-04-11T07:26:16.210Z,2416.00
2023-04-11T07:27:16.255Z,2131.00
2023-04-11T07:28:16.285Z,1866.00
2023-04-11T07:29:16.342Z,1669.00
2023-04-11T07:30:16.411Z,1566.00
2023-04-11T07:31:16.469Z,1417.00
2023-04-11T07:32:16.523Z,1334.00
2023-04-11T07:33:16.591Z,1281.00
2023-04-11T07:34:16.649Z,1108.00
2023-04-11T07:35:16.711Z,1061.00
2023-04-11T07:36:16.794Z,967.00
2023-04-11T07:37:16.823Z,846.00
2023-04-11T07:38:16.889Z,884.00
2023-04-11T07:39:16.947Z,906.00
2023-04-11T07:40:16.994Z,890.00
2023-04-11T07:41:17.053Z,859.00
2023-04-11T07:42:17.052Z,835.00
2023-04-11T07:43:17.072Z,788.00
2023-04-11T07:44:17.102Z,835.00
2023-04-11T07:45:17.108Z,991.00
2023-04-11T07:46:17.157Z,996.00
2023-04-11T07:47:17.124Z,1034.00
2023-04-11T07:48:17.131Z,995.00
2023-04-11T07:49:17.142Z,936.00
2023-04-11T07:50:17.126Z,1054.00
2023-04-11T07:51:17.170Z,1105.00
2023-04-11T07:52:17.125Z,1156.00
2023-04-11T07:53:17.146Z,1131.00
2023-04-11T07:54:17.123Z,1112.00
2023-04-11T07:55:17.168Z,1115.00
2023-04-11T07:56:17.145Z,1126.00
2023-04-11T07:57:17.144Z,1144.00
2023-04-11T07:58:17.178Z,1200.00
2023-04-11T07:59:17.186Z,1214.00
2023-04-11T08:00:17.218Z,1207.00
2023-04-11T08:01:17.249Z,1261.00
2023-04-11T08:02:17.383Z,1275.00
2023-04-11T08:03:17.583Z,1338.00
2023-04-11T08:04:17.481Z,1322.00
2023-04-11T08:05:17.483Z,1362.00
2023-04-11T08:06:17.427Z,1284.00
2023-04-11T08:07:17.436Z,1217.00
2023-04-11T08:08:17.446Z,1248.00
2023-04-11T08:09:17.459Z,1231.00
2023-04-11T08:10:17.519Z,1222.00
2023-04-11T08:11:17.570Z,1254.00
2023-04-11T08:12:17.569Z,1353.00
2023-04-11T08:13:17.575Z,1376.00
2023-04-11T08:14:17.649Z,1449.00
2023-04-11T08:15:17.625Z,1494.00
2023-04-11T08:16:17.691Z,1556.00
2023-04-11T08:17:27.837Z,1600.00
2023-04-11T08:18:18.709Z,1602.00
2023-04-11T08:19:17.672Z,1615.00
2023-04-11T08:20:17.653Z,1651.00
2023-04-11T08:21:17.659Z,1720.00
2023-04-11T08:22:17.635Z,1823.00
2023-04-11T08:23:17.619Z,1900.00
2023-04-11T08:24:17.858Z,1935.00
2023-04-11T08:25:17.617Z,2053.00
2023-04-11T08:26:17.608Z,2040.00
2023-04-11T08:27:17.650Z,2086.00
2023-04-11T08:28:17.711Z,2134.00
2023-04-11T08:29:17.752Z,2202.00
2023-04-11T08:30:17.818Z,2241.00
2023-04-11T08:31:18.121Z,2286.00
2023-04-11T08:32:18.167Z,2291.00
2023-04-11T08:33:17.941Z,2326.00
2023-04-11T08:34:17.975Z,2361.00
2023-04-11T08:35:18.017Z,2411.00
2023-04-11T08:36:18.102Z,2419.00
2023-04-11T08:37:18.100Z,2441.00
2023-04-11T08:38:18.220Z,2498.00
2023-04-11T08:39:18.176Z,2515.00
2023-04-11T08:40:18.211Z,2520.00
2023-04-11T08:41:18.233Z,2563.00
2023-04-11T08:42:18.259Z,2603.00
2023-04-11T08:43:18.310Z,2612.00
2023-04-11T08:44:18.324Z,2638.00
2023-04-11T08:45:18.361Z,2682.00
2023-04-11T08:46:18.421Z,2725.00
2023-04-11T08:47:18.421Z,2748.00
2023-04-11T08:48:19.382Z,2750.00
2023-04-11T08:49:18.345Z,2759.00
2023-04-11T08:50:18.337Z,2779.00
2023-04-11T08:51:18.361Z,2826.00
2023-04-11T08:52:18.265Z,2881.00
2023-04-11T08:53:18.245Z,2925.00
2023-04-11T08:54:18.227Z,2916.00
2023-04-11T08:55:18.203Z,2965.00
2023-04-11T08:56:18.172Z,2997.00
2023-04-11T08:57:18.857Z,3017.00
2023-04-11T08:58:18.128Z,3046.00
2023-04-11T08:59:18.099Z,3061.00
2023-04-11T09:00:18.110Z,3061.00
2023-04-11T09:01:18.144Z,3082.00
2023-04-11T09:02:18.361Z,3131.00
2023-04-11T09:03:18.305Z,3164.00
2023-04-11T09:04:18.201Z,3202.00
2023-04-11T09:05:18.190Z,3232.00
2023-04-11T09:06:18.198Z,3301.00
2023-04-11T09:07:18.211Z,3316.00
2023-04-11T09:08:18.230Z,3339.00
2023-04-11T09:09:18.235Z,3350.00
2023-04-11T09:10:18.242Z,3380.00
2023-04-11T09:11:18.245Z,3391.00
2023-04-11T09:12:18.255Z,3413.00
2023-04-11T09:13:18.260Z,3454.00
2023-04-11T09:14:18.317Z,3464.00
2023-04-11T09:15:18.290Z,3515.00
2023-04-11T09:16:18.348Z,3529.00
2023-04-11T09:17:18.313Z,3541.00
2023-04-11T09:18:18.314Z,3555.00
2023-04-11T09:19:18.335Z,3562.00
2023-04-11T09:20:18.351Z,3580.00
2023-04-11T09:21:18.874Z,3596.00
2023-04-11T09:22:18.381Z,3592.00
2023-04-11T09:23:18.403Z,3596.00
2023-04-11T09:24:18.422Z,3598.00
2023-04-11T09:25:18.468Z,3587.00
2023-04-11T09:26:18.465Z,3587.00
2023-04-11T09:27:18.480Z,3621.00
2023-04-11T09:28:18.492Z,3615.00
2023-04-11T09:29:18.507Z,3635.00
2023-04-11T09:30:18.528Z,3637.00
2023-04-11T09:31:18.603Z,3640.00
2023-04-11T09:32:18.556Z,3653.00
2023-04-11T09:33:18.557Z,3680.00
2023-04-11T09:34:18.571Z,3712.00
2023-04-11T09:35:18.608Z,3718.00
2023-04-11T09:36:18.601Z,3746.00
2023-04-11T09:37:18.601Z,3763.00
2023-04-11T09:38:18.619Z,3784.00
2023-04-11T09:39:18.615Z,3788.00
2023-04-11T09:40:18.621Z,3819.00
2023-04-11T09:41:18.644Z,3840.00
2023-04-11T09:42:18.652Z,3841.00
2023-04-11T09:43:20.329Z,3861.00
2023-04-11T09:44:19.368Z,3840.00
2023-04-11T09:45:18.717Z,3884.00
2023-04-11T09:46:18.842Z,3908.00
2023-04-11T09:47:18.715Z,3882.00
2023-04-11T09:48:18.739Z,3909.00
2023-04-11T09:49:18.760Z,3920.00
2023-04-11T09:50:18.772Z,3941.00
2023-04-11T09:51:34.367Z,3952.00
2023-04-11T09:52:19.724Z,3953.00
2023-04-11T09:53:18.695Z,3956.00
2023-04-11T09:54:18.663Z,3971.00
2023-04-11T09:55:18.624Z,3998.00
2023-04-11T09:56:18.595Z,4056.00
2023-04-11T09:57:18.558Z,4056.00
2023-04-11T09:58:18.529Z,4059.00
2023-04-11T09:59:18.507Z,4076.00
2023-04-11T10:00:18.466Z,4055.00
2023-04-11T10:01:18.469Z,4044.00
2023-04-11T10:02:18.460Z,4077.00
2023-04-11T10:03:18.522Z,4084.00
2023-04-11T10:04:18.361Z,4072.00
2023-04-11T10:05:18.294Z,4084.00
2023-04-11T10:06:18.281Z,4113.00
2023-04-11T10:07:18.254Z,4106.00
2023-04-11T10:08:18.208Z,4097.00
2023-04-11T10:09:18.161Z,4053.00
2023-04-11T10:10:18.122Z,4101.00
2023-04-11T10:11:18.098Z,4091.00
2023-04-11T10:12:18.057Z,4066.00
2023-04-11T10:13:18.039Z,4072.00
2023-04-11T10:14:18.050Z,4069.00
2023-04-11T10:15:18.057Z,4063.00
2023-04-11T10:16:18.089Z,4051.00
2023-04-11T10:17:22.152Z,4043.00
2023-04-11T10:18:19.061Z,4044.00
2023-04-11T10:19:18.034Z,4044.00
2023-04-11T10:20:18.010Z,4033.00
2023-04-11T10:21:17.980Z,4019.00
2023-04-11T10:22:17.956Z,4032.00
2023-04-11T10:23:17.935Z,4012.00
2023-04-11T10:24:18.809Z,4021.00
2023-04-11T10:25:18.818Z,4022.00
2023-04-11T10:26:17.873Z,4025.00
2023-04-11T10:27:18.806Z,4012.00
2023-04-11T10:28:17.835Z,4019.00
2023-04-11T10:29:17.806Z,4017.00
2023-04-11T10:30:17.781Z,4008.00
2023-04-11T10:31:17.824Z,3982.00
2023-04-11T10:32:17.736Z,3972.00
2023-04-11T10:33:17.873Z,3962.00
2023-04-11T10:34:17.684Z,3941.00
2023-04-11T10:35:17.690Z,3943.00
2023-04-11T10:36:17.685Z,3918.00
2023-04-11T10:37:17.646Z,3923.00
2023-04-11T10:38:17.618Z,3917.00
2023-04-11T10:39:17.608Z,3918.00
2023-04-11T10:40:18.398Z,3892.00
2023-04-11T10:41:17.538Z,3882.00
2023-04-11T10:42:18.412Z,3877.00
2023-04-11T10:43:17.501Z,3868.00
2023-04-11T10:44:17.487Z,3865.00
2023-04-11T10:45:17.449Z,3840.00
2023-04-11T10:46:17.448Z,3845.00
2023-04-11T10:47:17.424Z,3836.00
2023-04-11T10:48:17.373Z,3833.00
2023-04-11T10:49:17.343Z,3818.00
2023-04-11T10:50:17.328Z,3813.00
2023-04-11T10:51:17.303Z,3802.00
2023-04-11T10:52:17.360Z,3803.00
2023-04-11T10:53:17.408Z,3791.00
2023-04-11T10:54:17.450Z,3778.00
2023-04-11T10:55:17.520Z,3769.00
2023-04-11T10:56:17.571Z,3769.00
2023-04-11T10:57:17.620Z,3755.00
2023-04-11T10:58:17.669Z,3747.00
2023-04-11T10:59:17.729Z,3739.00
2023-04-11T11:00:17.775Z,3747.00
2023-04-11T11:01:26.688Z,3737.00
2023-04-11T11:02:18.900Z,3737.00
2023-04-11T11:03:17.831Z,3736.00
2023-04-11T11:04:17.978Z,3718.00
2023-04-11T11:05:17.751Z,3718.00
2023-04-11T11:06:17.739Z,3703.00
2023-04-11T11:07:17.729Z,3690.00
2023-04-11T11:08:17.720Z,3703.00
2023-04-11T11:09:18.399Z,3691.00
2023-04-11T11:10:17.734Z,3666.00
2023-04-11T11:11:17.749Z,3661.00
2023-04-11T11:12:17.805Z,3661.00
2023-04-11T11:13:17.856Z,3647.00
2023-04-11T11:14:17.877Z,3648.00
2023-04-11T11:15:17.929Z,3637.00
2023-04-11T11:16:17.999Z,3629.00
2023-04-11T11:17:18.030Z,3633.00
2023-04-11T11:18:18.073Z,3621.00
2023-04-11T11:19:18.110Z,3621.00
2023-04-11T11:20:18.202Z,3595.00
2023-04-11T11:21:26.694Z,3591.00
2023-04-11T11:22:19.225Z,3592.00
2023-04-11T11:23:18.151Z,3592.00
2023-04-11T11:24:18.147Z,3574.00
2023-04-11T11:25:18.138Z,3565.00
2023-04-11T11:26:18.125Z,3573.00
2023-04-11T11:27:18.106Z,3557.00
2023-04-11T11:28:18.095Z,3551.00
2023-04-11T11:29:18.076Z,3543.00
2023-04-11T11:30:18.081Z,3539.00
2023-04-11T11:31:18.200Z,3544.00
2023-04-11T11:32:18.188Z,3518.00
2023-04-11T11:33:18.245Z,3514.00
2023-04-11T11:35:18.278Z,3515.00
2023-04-11T11:36:18.289Z,3496.00
2023-04-11T11:37:18.271Z,3482.00
2023-04-11T11:38:18.275Z,3488.00
2023-04-11T11:39:19.485Z,3469.00
2023-04-11T11:40:18.239Z,3470.00
2023-04-11T11:41:18.237Z,3468.00
2023-04-11T11:42:18.321Z,3459.00
2023-04-11T11:43:18.270Z,3473.00
2023-04-11T11:44:18.322Z,3457.00
2023-04-11T11:45:18.371Z,3457.00
2023-04-11T11:46:18.475Z,3442.00
2023-04-11T11:47:18.505Z,3428.00
2023-04-11T11:48:18.565Z,3435.00
2023-04-11T11:49:18.633Z,3416.00
2023-04-11T11:50:18.692Z,3411.00
2023-04-11T11:51:18.752Z,3409.00
2023-04-11T11:52:18.765Z,3410.00
2023-04-11T11:53:18.782Z,3374.00
2023-04-11T11:54:18.819Z,3383.00
2023-04-11T11:55:18.876Z,3382.00
2023-04-11T11:56:18.925Z,3364.00
2023-04-11T11:57:18.929Z,3356.00
2023-04-11T11:58:18.985Z,3359.00
2023-04-11T11:59:19.014Z,3355.00
2023-04-11T12:00:19.053Z,3350.00
2023-04-11T12:01:19.097Z,3344.00
2023-04-11T12:02:19.190Z,3336.00
2023-04-11T12:03:19.328Z,3330.00
2023-04-11T12:04:19.366Z,3327.00
2023-04-11T12:05:19.234Z,3318.00
2023-04-11T12:06:19.258Z,3320.00
2023-04-11T12:07:19.294Z,3307.00
2023-04-11T12:08:19.314Z,3292.00
2023-04-11T12:09:19.344Z,3298.00
2023-04-11T12:10:19.355Z,3282.00
2023-04-11T12:11:19.341Z,3284.00
2023-04-11T12:12:19.348Z,3268.00
2023-04-11T12:13:19.340Z,3263.00
2023-04-11T12:14:19.462Z,3250.00
2023-04-11T12:15:19.399Z,3250.00
2023-04-11T12:16:19.510Z,3239.00
2023-04-11T12:17:19.542Z,3245.00